sensor_id;sensor_type;location;lat;lon;timestamp;P1;durP1;ratioP1;P2;durP2;ratioP2
60704;SDS011;46545;38.014;-7.874;2022-10-12T00:00:31;13.45;;;5.57;;
60704;SDS011;46545;38.014;-7.874;2022-10-12T00:02:32;10.07;;;5.55;;
60704;SDS011;46545;38.014;-7.874;2022-10-12T00:04:32;15.05;;;6.10;;
60704;SDS011;46545;38.014;-7.874;2022-10-12T00:06:33;11.88;;;5.55;;
60704;SDS011;46545;38.014;-7.874;2022-10-12T00:08:34;8.82;;;6.03;;
60704;SDS011;46545;38.014;-7.874;2022-10-12T00:10:38;19.20;;;5.82;;
60704;SDS011;46545;38.014;-7.874;2022-10-12T00:12:39;9.55;;;5.55;;
60704;SDS011;46545;38.014;-7.874;2022-10-12T00:14:39;10.32;;;5.68;;
60704;SDS011;46545;38.014;-7.874;2022-10-12T00:16:40;9.50;;;6.10;;
60704;SDS011;46545;38.014;-7.874;2022-10-12T00:18:40;11.07;;;5.30;;
60704;SDS011;46545;38.014;-7.874;2022-10-12T00:20:41;15.70;;;5.43;;
60704;SDS011;46545;38.014;-7.874;2022-10-12T00:22:41;12.27;;;6.13;;
60704;SDS011;46545;38.014;-7.874;2022-10-12T00:24:42;12.85;;;5.88;;
60704;SDS011;46545;38.014;-7.874;2022-10-12T00:26:42;11.30;;;5.25;;
60704;SDS011;46545;38.014;-7.874;2022-10-12T00:28:43;10.40;;;5.65;;
60704;SDS011;46545;38.014;-7.874;2022-10-12T00:30:43;9.23;;;5.35;;
60704;SDS011;46545;38.014;-7.874;2022-10-12T00:32:44;20.42;;;6.90;;
60704;SDS011;46545;38.014;-7.874;2022-10-12T00:34:44;26.83;;;5.85;;
60704;SDS011;46545;38.014;-7.874;2022-10-12T00:36:45;14.10;;;5.70;;
60704;SDS011;46545;38.014;-7.874;2022-10-12T00:38:46;12.38;;;5.72;;
60704;SDS011;46545;38.014;-7.874;2022-10-12T00:40:46;11.63;;;5.28;;
60704;SDS011;46545;38.014;-7.874;2022-10-12T00:42:47;9.68;;;5.72;;
60704;SDS011;46545;38.014;-7.874;2022-10-12T00:44:50;27.45;;;6.10;;
60704;SDS011;46545;38.014;-7.874;2022-10-12T00:46:51;8.02;;;4.75;;
60704;SDS011;46545;38.014;-7.874;2022-10-12T00:49:02;17.10;;;6.43;;
60704;SDS011;46545;38.014;-7.874;2022-10-12T00:51:05;17.02;;;5.55;;
60704;SDS011;46545;38.014;-7.874;2022-10-12T00:53:10;12.15;;;4.88;;
60704;SDS011;46545;38.014;-7.874;2022-10-12T00:55:14;13.20;;;5.95;;
60704;SDS011;46545;38.014;-7.874;2022-10-12T00:57:16;11.18;;;5.55;;
60704;SDS011;46545;38.014;-7.874;2022-10-12T00:59:19;18.00;;;5.78;;
60704;SDS011;46545;38.014;-7.874;2022-10-12T01:01:20;20.65;;;7.72;;
60704;SDS011;46545;38.014;-7.874;2022-10-12T01:03:21;8.95;;;4.80;;
60704;SDS011;46545;38.014;-7.874;2022-10-12T01:05:22;14.80;;;5.03;;
60704;SDS011;46545;38.014;-7.874;2022-10-12T01:07:23;16.40;;;5.55;;
60704;SDS011;46545;38.014;-7.874;2022-10-12T01:09:23;13.63;;;5.68;;
60704;SDS011;46545;38.014;-7.874;2022-10-12T01:11:24;10.30;;;4.93;;
60704;SDS011;46545;38.014;-7.874;2022-10-12T01:13:25;17.77;;;5.45;;
60704;SDS011;46545;38.014;-7.874;2022-10-12T01:15:26;11.27;;;5.10;;
60704;SDS011;46545;38.014;-7.874;2022-10-12T01:17:34;11.63;;;5.43;;
60704;SDS011;46545;38.014;-7.874;2022-10-12T01:21:52;17.83;;;6.30;;
60704;SDS011;46545;38.014;-7.874;2022-10-12T01:24:18;10.48;;;5.82;;
60704;SDS011;46545;38.014;-7.874;2022-10-12T01:28:35;9.55;;;4.85;;
60704;SDS011;46545;38.014;-7.874;2022-10-12T01:30:39;11.15;;;5.72;;
60704;SDS011;46545;38.014;-7.874;2022-10-12T01:35:05;8.30;;;5.28;;
60704;SDS011;46545;38.014;-7.874;2022-10-12T01:37:10;9.45;;;5.85;;
60704;SDS011;46545;38.014;-7.874;2022-10-12T01:39:15;15.07;;;5.93;;
60704;SDS011;46545;38.014;-7.874;2022-10-12T01:43:21;9.20;;;5.55;;
60704;SDS011;46545;38.014;-7.874;2022-10-12T01:45:22;10.65;;;4.50;;
60704;SDS011;46545;38.014;-7.874;2022-10-12T01:47:23;8.32;;;5.30;;
60704;SDS011;46545;38.014;-7.874;2022-10-12T01:49:24;13.95;;;5.43;;
60704;SDS011;46545;38.014;-7.874;2022-10-12T01:53:50;15.05;;;5.90;;
60704;SDS011;46545;38.014;-7.874;2022-10-12T01:55:56;15.70;;;6.18;;
60704;SDS011;46545;38.014;-7.874;2022-10-12T01:58:10;14.70;;;5.90;;
60704;SDS011;46545;38.014;-7.874;2022-10-12T02:00:15;15.63;;;5.78;;
60704;SDS011;46545;38.014;-7.874;2022-10-12T02:06:40;9.65;;;5.78;;
60704;SDS011;46545;38.014;-7.874;2022-10-12T02:12:48;11.70;;;5.55;;
60704;SDS011;46545;38.014;-7.874;2022-10-12T02:14:50;9.70;;;4.95;;
60704;SDS011;46545;38.014;-7.874;2022-10-12T02:16:53;12.02;;;5.15;;
60704;SDS011;46545;38.014;-7.874;2022-10-12T02:18:55;13.10;;;5.55;;
60704;SDS011;46545;38.014;-7.874;2022-10-12T02:20:57;13.23;;;6.30;;
60704;SDS011;46545;38.014;-7.874;2022-10-12T02:22:59;9.18;;;5.32;;
60704;SDS011;46545;38.014;-7.874;2022-10-12T02:25:05;19.55;;;5.60;;
60704;SDS011;46545;38.014;-7.874;2022-10-12T02:27:08;8.65;;;4.70;;
60704;SDS011;46545;38.014;-7.874;2022-10-12T02:29:11;9.75;;;4.32;;
60704;SDS011;46545;38.014;-7.874;2022-10-12T02:33:23;10.27;;;4.68;;
60704;SDS011;46545;38.014;-7.874;2022-10-12T02:41:34;7.10;;;3.95;;
60704;SDS011;46545;38.014;-7.874;2022-10-12T02:45:40;9.52;;;4.88;;
60704;SDS011;46545;38.014;-7.874;2022-10-12T02:47:41;9.10;;;4.43;;
60704;SDS011;46545;38.014;-7.874;2022-10-12T02:49:44;10.68;;;3.92;;
60704;SDS011;46545;38.014;-7.874;2022-10-12T02:51:45;8.32;;;4.70;;
60704;SDS011;46545;38.014;-7.874;2022-10-12T02:53:46;7.32;;;4.63;;
60704;SDS011;46545;38.014;-7.874;2022-10-12T02:55:50;7.20;;;4.85;;
60704;SDS011;46545;38.014;-7.874;2022-10-12T02:57:51;9.30;;;4.53;;
60704;SDS011;46545;38.014;-7.874;2022-10-12T02:59:52;9.98;;;4.18;;
60704;SDS011;46545;38.014;-7.874;2022-10-12T03:01:52;10.50;;;4.50;;
60704;SDS011;46545;38.014;-7.874;2022-10-12T03:03:53;8.18;;;4.10;;
60704;SDS011;46545;38.014;-7.874;2022-10-12T03:05:53;10.98;;;5.22;;
60704;SDS011;46545;38.014;-7.874;2022-10-12T03:07:54;10.82;;;3.70;;
60704;SDS011;46545;38.014;-7.874;2022-10-12T03:09:54;9.55;;;4.07;;
60704;SDS011;46545;38.014;-7.874;2022-10-12T03:11:55;12.00;;;3.97;;
60704;SDS011;46545;38.014;-7.874;2022-10-12T03:13:56;8.65;;;3.47;;
60704;SDS011;46545;38.014;-7.874;2022-10-12T03:16:03;6.97;;;4.30;;
60704;SDS011;46545;38.014;-7.874;2022-10-12T03:18:03;9.43;;;3.83;;
60704;SDS011;46545;38.014;-7.874;2022-10-12T03:20:04;10.02;;;4.00;;
60704;SDS011;46545;38.014;-7.874;2022-10-12T03:22:05;6.85;;;3.30;;
60704;SDS011;46545;38.014;-7.874;2022-10-12T03:24:05;13.25;;;3.55;;
60704;SDS011;46545;38.014;-7.874;2022-10-12T03:26:06;8.15;;;3.72;;
60704;SDS011;46545;38.014;-7.874;2022-10-12T03:28:07;13.90;;;4.10;;
60704;SDS011;46545;38.014;-7.874;2022-10-12T03:30:08;10.80;;;3.45;;
60704;SDS011;46545;38.014;-7.874;2022-10-12T03:32:10;6.70;;;3.95;;
60704;SDS011;46545;38.014;-7.874;2022-10-12T03:34:11;13.23;;;3.70;;
60704;SDS011;46545;38.014;-7.874;2022-10-12T03:36:11;12.25;;;3.83;;
60704;SDS011;46545;38.014;-7.874;2022-10-12T03:38:12;5.78;;;3.58;;
60704;SDS011;46545;38.014;-7.874;2022-10-12T03:40:12;9.25;;;3.63;;
60704;SDS011;46545;38.014;-7.874;2022-10-12T03:42:13;7.32;;;3.90;;
60704;SDS011;46545;38.014;-7.874;2022-10-12T03:44:15;8.15;;;3.08;;
60704;SDS011;46545;38.014;-7.874;2022-10-12T03:46:15;8.20;;;4.03;;
60704;SDS011;46545;38.014;-7.874;2022-10-12T03:48:15;7.43;;;3.50;;
60704;SDS011;46545;38.014;-7.874;2022-10-12T03:50:16;9.05;;;3.25;;
60704;SDS011;46545;38.014;-7.874;2022-10-12T03:52:17;7.70;;;3.15;;
60704;SDS011;46545;38.014;-7.874;2022-10-12T03:54:17;7.45;;;3.60;;
60704;SDS011;46545;38.014;-7.874;2022-10-12T03:56:18;11.27;;;4.32;;
60704;SDS011;46545;38.014;-7.874;2022-10-12T03:58:18;10.18;;;3.40;;
60704;SDS011;46545;38.014;-7.874;2022-10-12T04:00:19;7.43;;;3.97;;
60704;SDS011;46545;38.014;-7.874;2022-10-12T04:02:19;8.25;;;3.72;;
60704;SDS011;46545;38.014;-7.874;2022-10-12T04:04:19;7.95;;;3.58;;
60704;SDS011;46545;38.014;-7.874;2022-10-12T04:06:20;8.43;;;3.58;;
60704;SDS011;46545;38.014;-7.874;2022-10-12T04:08:21;14.60;;;3.97;;
60704;SDS011;46545;38.014;-7.874;2022-10-12T04:10:21;9.70;;;4.15;;
60704;SDS011;46545;38.014;-7.874;2022-10-12T04:12:22;14.13;;;4.30;;
60704;SDS011;46545;38.014;-7.874;2022-10-12T04:14:22;9.57;;;3.90;;
60704;SDS011;46545;38.014;-7.874;2022-10-12T04:16:23;7.43;;;3.90;;
60704;SDS011;46545;38.014;-7.874;2022-10-12T04:18:23;14.85;;;3.92;;
60704;SDS011;46545;38.014;-7.874;2022-10-12T04:20:24;14.10;;;5.22;;
60704;SDS011;46545;38.014;-7.874;2022-10-12T04:22:24;8.88;;;4.50;;
60704;SDS011;46545;38.014;-7.874;2022-10-12T04:24:25;8.85;;;3.53;;
60704;SDS011;46545;38.014;-7.874;2022-10-12T04:26:25;8.30;;;3.95;;
60704;SDS011;46545;38.014;-7.874;2022-10-12T04:28:25;11.30;;;4.38;;
60704;SDS011;46545;38.014;-7.874;2022-10-12T04:30:26;7.70;;;4.03;;
60704;SDS011;46545;38.014;-7.874;2022-10-12T04:32:26;6.55;;;3.63;;
60704;SDS011;46545;38.014;-7.874;2022-10-12T04:34:27;12.50;;;4.50;;
60704;SDS011;46545;38.014;-7.874;2022-10-12T04:36:28;10.60;;;3.90;;
60704;SDS011;46545;38.014;-7.874;2022-10-12T04:38:28;10.75;;;4.72;;
60704;SDS011;46545;38.014;-7.874;2022-10-12T04:40:29;6.43;;;3.35;;
60704;SDS011;46545;38.014;-7.874;2022-10-12T04:42:29;13.95;;;3.78;;
60704;SDS011;46545;38.014;-7.874;2022-10-12T04:44:30;10.20;;;5.38;;
60704;SDS011;46545;38.014;-7.874;2022-10-12T04:46:30;14.38;;;4.55;;
60704;SDS011;46545;38.014;-7.874;2022-10-12T04:48:31;6.20;;;4.30;;
60704;SDS011;46545;38.014;-7.874;2022-10-12T04:50:32;9.02;;;4.22;;
60704;SDS011;46545;38.014;-7.874;2022-10-12T04:52:32;11.73;;;4.35;;
60704;SDS011;46545;38.014;-7.874;2022-10-12T04:54:33;10.02;;;4.20;;
60704;SDS011;46545;38.014;-7.874;2022-10-12T04:56:33;9.70;;;4.85;;
60704;SDS011;46545;38.014;-7.874;2022-10-12T04:58:34;9.18;;;4.85;;
60704;SDS011;46545;38.014;-7.874;2022-10-12T05:00:34;11.07;;;4.18;;
60704;SDS011;46545;38.014;-7.874;2022-10-12T05:02:35;8.38;;;4.35;;
60704;SDS011;46545;38.014;-7.874;2022-10-12T05:04:35;8.93;;;4.65;;
60704;SDS011;46545;38.014;-7.874;2022-10-12T05:06:36;7.07;;;3.65;;
60704;SDS011;46545;38.014;-7.874;2022-10-12T05:08:36;10.60;;;4.93;;
60704;SDS011;46545;38.014;-7.874;2022-10-12T05:10:37;8.52;;;4.72;;
60704;SDS011;46545;38.014;-7.874;2022-10-12T05:12:38;10.82;;;4.55;;
60704;SDS011;46545;38.014;-7.874;2022-10-12T05:14:38;8.75;;;4.95;;
60704;SDS011;46545;38.014;-7.874;2022-10-12T05:16:39;12.60;;;4.72;;
60704;SDS011;46545;38.014;-7.874;2022-10-12T05:18:39;9.77;;;4.57;;
60704;SDS011;46545;38.014;-7.874;2022-10-12T05:20:40;9.25;;;4.03;;
60704;SDS011;46545;38.014;-7.874;2022-10-12T05:22:40;13.35;;;5.20;;
60704;SDS011;46545;38.014;-7.874;2022-10-12T05:24:41;13.48;;;4.72;;
60704;SDS011;46545;38.014;-7.874;2022-10-12T05:26:41;10.10;;;5.03;;
60704;SDS011;46545;38.014;-7.874;2022-10-12T05:28:42;12.43;;;4.97;;
60704;SDS011;46545;38.014;-7.874;2022-10-12T05:30:42;13.20;;;5.43;;
60704;SDS011;46545;38.014;-7.874;2022-10-12T05:32:43;13.73;;;4.78;;
60704;SDS011;46545;38.014;-7.874;2022-10-12T05:34:43;11.57;;;4.35;;
60704;SDS011;46545;38.014;-7.874;2022-10-12T05:36:44;14.05;;;5.78;;
60704;SDS011;46545;38.014;-7.874;2022-10-12T05:38:44;8.43;;;4.43;;
60704;SDS011;46545;38.014;-7.874;2022-10-12T05:40:45;15.07;;;5.30;;
60704;SDS011;46545;38.014;-7.874;2022-10-12T05:42:45;11.48;;;5.15;;
60704;SDS011;46545;38.014;-7.874;2022-10-12T05:44:46;16.08;;;4.68;;
60704;SDS011;46545;38.014;-7.874;2022-10-12T05:46:46;13.18;;;4.55;;
60704;SDS011;46545;38.014;-7.874;2022-10-12T05:48:47;14.00;;;5.10;;
60704;SDS011;46545;38.014;-7.874;2022-10-12T05:50:47;16.75;;;5.10;;
60704;SDS011;46545;38.014;-7.874;2022-10-12T05:52:48;7.85;;;4.95;;
60704;SDS011;46545;38.014;-7.874;2022-10-12T05:54:48;9.65;;;5.65;;
60704;SDS011;46545;38.014;-7.874;2022-10-12T05:56:49;10.02;;;5.63;;
60704;SDS011;46545;38.014;-7.874;2022-10-12T05:58:49;13.02;;;5.07;;
60704;SDS011;46545;38.014;-7.874;2022-10-12T06:00:51;10.50;;;5.03;;
60704;SDS011;46545;38.014;-7.874;2022-10-12T06:02:51;16.80;;;4.35;;
60704;SDS011;46545;38.014;-7.874;2022-10-12T06:04:52;10.43;;;4.32;;
60704;SDS011;46545;38.014;-7.874;2022-10-12T06:06:52;6.18;;;3.80;;
60704;SDS011;46545;38.014;-7.874;2022-10-12T06:08:53;13.93;;;3.95;;
60704;SDS011;46545;38.014;-7.874;2022-10-12T06:10:53;11.85;;;3.97;;
60704;SDS011;46545;38.014;-7.874;2022-10-12T06:12:54;9.77;;;3.63;;
60704;SDS011;46545;38.014;-7.874;2022-10-12T06:14:54;11.98;;;4.05;;
60704;SDS011;46545;38.014;-7.874;2022-10-12T06:16:55;10.90;;;3.42;;
60704;SDS011;46545;38.014;-7.874;2022-10-12T06:18:55;17.17;;;3.92;;
60704;SDS011;46545;38.014;-7.874;2022-10-12T06:20:56;10.45;;;3.97;;
60704;SDS011;46545;38.014;-7.874;2022-10-12T06:22:56;10.05;;;4.50;;
60704;SDS011;46545;38.014;-7.874;2022-10-12T06:24:57;10.18;;;3.65;;
60704;SDS011;46545;38.014;-7.874;2022-10-12T06:26:57;17.92;;;3.90;;
60704;SDS011;46545;38.014;-7.874;2022-10-12T06:28:58;9.70;;;3.28;;
60704;SDS011;46545;38.014;-7.874;2022-10-12T06:30:59;13.93;;;3.58;;
60704;SDS011;46545;38.014;-7.874;2022-10-12T06:33:00;9.18;;;3.53;;
60704;SDS011;46545;38.014;-7.874;2022-10-12T06:35:01;8.27;;;3.47;;
60704;SDS011;46545;38.014;-7.874;2022-10-12T06:37:01;9.45;;;3.28;;
60704;SDS011;46545;38.014;-7.874;2022-10-12T06:39:02;8.88;;;3.25;;
60704;SDS011;46545;38.014;-7.874;2022-10-12T06:41:02;12.68;;;4.57;;
60704;SDS011;46545;38.014;-7.874;2022-10-12T06:43:03;10.15;;;3.60;;
60704;SDS011;46545;38.014;-7.874;2022-10-12T06:45:03;9.38;;;3.75;;
60704;SDS011;46545;38.014;-7.874;2022-10-12T06:47:04;10.38;;;4.18;;
60704;SDS011;46545;38.014;-7.874;2022-10-12T06:49:04;7.82;;;3.53;;
60704;SDS011;46545;38.014;-7.874;2022-10-12T06:51:05;12.15;;;4.78;;
60704;SDS011;46545;38.014;-7.874;2022-10-12T06:53:05;13.65;;;4.13;;
60704;SDS011;46545;38.014;-7.874;2022-10-12T06:55:06;8.10;;;5.25;;
60704;SDS011;46545;38.014;-7.874;2022-10-12T06:57:07;10.32;;;4.13;;
60704;SDS011;46545;38.014;-7.874;2022-10-12T06:59:09;10.60;;;4.32;;
60704;SDS011;46545;38.014;-7.874;2022-10-12T07:01:10;12.68;;;4.25;;
60704;SDS011;46545;38.014;-7.874;2022-10-12T07:03:11;10.38;;;4.75;;
60704;SDS011;46545;38.014;-7.874;2022-10-12T07:05:12;12.35;;;3.95;;
60704;SDS011;46545;38.014;-7.874;2022-10-12T07:07:12;9.38;;;3.75;;
60704;SDS011;46545;38.014;-7.874;2022-10-12T07:09:13;12.95;;;4.25;;
60704;SDS011;46545;38.014;-7.874;2022-10-12T07:11:13;14.48;;;4.30;;
60704;SDS011;46545;38.014;-7.874;2022-10-12T07:13:14;11.25;;;3.92;;
60704;SDS011;46545;38.014;-7.874;2022-10-12T07:15:14;8.98;;;4.30;;
60704;SDS011;46545;38.014;-7.874;2022-10-12T07:17:15;13.73;;;4.25;;
60704;SDS011;46545;38.014;-7.874;2022-10-12T07:19:15;12.75;;;3.33;;
60704;SDS011;46545;38.014;-7.874;2022-10-12T07:21:16;9.35;;;4.22;;
60704;SDS011;46545;38.014;-7.874;2022-10-12T07:23:18;11.60;;;3.13;;
60704;SDS011;46545;38.014;-7.874;2022-10-12T07:25:18;12.82;;;3.65;;
60704;SDS011;46545;38.014;-7.874;2022-10-12T07:27:19;13.13;;;3.33;;
60704;SDS011;46545;38.014;-7.874;2022-10-12T07:29:19;6.20;;;3.47;;
60704;SDS011;46545;38.014;-7.874;2022-10-12T07:31:20;11.93;;;3.30;;
60704;SDS011;46545;38.014;-7.874;2022-10-12T07:33:20;12.55;;;3.60;;
60704;SDS011;46545;38.014;-7.874;2022-10-12T07:35:21;9.88;;;3.50;;
60704;SDS011;46545;38.014;-7.874;2022-10-12T07:37:21;9.55;;;3.78;;
60704;SDS011;46545;38.014;-7.874;2022-10-12T07:39:22;10.35;;;3.25;;
60704;SDS011;46545;38.014;-7.874;2022-10-12T07:41:23;8.90;;;2.95;;
60704;SDS011;46545;38.014;-7.874;2022-10-12T07:43:24;12.07;;;3.58;;
60704;SDS011;46545;38.014;-7.874;2022-10-12T07:45:25;12.00;;;3.72;;
60704;SDS011;46545;38.014;-7.874;2022-10-12T07:47:27;7.30;;;2.83;;
60704;SDS011;46545;38.014;-7.874;2022-10-12T07:49:28;14.63;;;3.55;;
60704;SDS011;46545;38.014;-7.874;2022-10-12T07:51:29;10.35;;;3.08;;
60704;SDS011;46545;38.014;-7.874;2022-10-12T07:53:29;13.07;;;3.45;;
60704;SDS011;46545;38.014;-7.874;2022-10-12T07:55:30;8.60;;;3.80;;
60704;SDS011;46545;38.014;-7.874;2022-10-12T07:57:31;13.02;;;3.60;;
60704;SDS011;46545;38.014;-7.874;2022-10-12T07:59:32;14.10;;;3.75;;
60704;SDS011;46545;38.014;-7.874;2022-10-12T08:01:32;14.30;;;3.35;;
60704;SDS011;46545;38.014;-7.874;2022-10-12T08:03:34;16.45;;;3.42;;
60704;SDS011;46545;38.014;-7.874;2022-10-12T08:05:34;16.35;;;3.22;;
60704;SDS011;46545;38.014;-7.874;2022-10-12T08:07:37;18.00;;;5.33;;
60704;SDS011;46545;38.014;-7.874;2022-10-12T08:09:37;12.40;;;3.58;;
60704;SDS011;46545;38.014;-7.874;2022-10-12T08:11:38;13.40;;;3.92;;
60704;SDS011;46545;38.014;-7.874;2022-10-12T08:13:39;11.70;;;3.42;;
60704;SDS011;46545;38.014;-7.874;2022-10-12T08:15:40;14.77;;;3.85;;
60704;SDS011;46545;38.014;-7.874;2022-10-12T08:17:40;11.15;;;3.83;;
60704;SDS011;46545;38.014;-7.874;2022-10-12T08:19:41;11.98;;;4.72;;
60704;SDS011;46545;38.014;-7.874;2022-10-12T08:21:41;9.60;;;3.60;;
60704;SDS011;46545;38.014;-7.874;2022-10-12T08:23:42;10.60;;;3.58;;
60704;SDS011;46545;38.014;-7.874;2022-10-12T08:25:54;9.45;;;3.25;;
60704;SDS011;46545;38.014;-7.874;2022-10-12T08:27:56;17.13;;;3.45;;
60704;SDS011;46545;38.014;-7.874;2022-10-12T08:29:57;12.25;;;4.13;;
60704;SDS011;46545;38.014;-7.874;2022-10-12T08:31:57;15.32;;;3.58;;
60704;SDS011;46545;38.014;-7.874;2022-10-12T08:33:58;13.02;;;3.75;;
60704;SDS011;46545;38.014;-7.874;2022-10-12T08:36:03;8.35;;;3.22;;
60704;SDS011;46545;38.014;-7.874;2022-10-12T08:38:03;16.95;;;3.03;;
60704;SDS011;46545;38.014;-7.874;2022-10-12T08:40:04;11.88;;;3.55;;
60704;SDS011;46545;38.014;-7.874;2022-10-12T08:46:12;15.32;;;3.67;;
60704;SDS011;46545;38.014;-7.874;2022-10-12T08:48:14;19.60;;;3.50;;
60704;SDS011;46545;38.014;-7.874;2022-10-12T08:52:29;10.48;;;2.97;;
60704;SDS011;46545;38.014;-7.874;2022-10-12T08:54:32;17.33;;;3.72;;
60704;SDS011;46545;38.014;-7.874;2022-10-12T08:56:34;14.45;;;3.35;;
60704;SDS011;46545;38.014;-7.874;2022-10-12T08:58:35;14.10;;;3.58;;
60704;SDS011;46545;38.014;-7.874;2022-10-12T09:00:36;12.63;;;4.20;;
60704;SDS011;46545;38.014;-7.874;2022-10-12T09:04:47;12.27;;;3.88;;
60704;SDS011;46545;38.014;-7.874;2022-10-12T09:15:35;11.05;;;3.40;;
60704;SDS011;46545;38.014;-7.874;2022-10-12T09:17:55;13.15;;;3.42;;
60704;SDS011;46545;38.014;-7.874;2022-10-12T09:20:03;19.20;;;3.80;;
60704;SDS011;46545;38.014;-7.874;2022-10-12T09:22:07;16.55;;;3.50;;
60704;SDS011;46545;38.014;-7.874;2022-10-12T09:24:13;18.50;;;4.82;;
60704;SDS011;46545;38.014;-7.874;2022-10-12T09:30:45;8.80;;;3.40;;
60704;SDS011;46545;38.014;-7.874;2022-10-12T09:34:48;7.78;;;3.35;;
60704;SDS011;46545;38.014;-7.874;2022-10-12T09:36:49;15.45;;;2.97;;
60704;SDS011;46545;38.014;-7.874;2022-10-12T09:38:50;9.15;;;2.95;;
60704;SDS011;46545;38.014;-7.874;2022-10-12T09:40:51;9.60;;;3.28;;
60704;SDS011;46545;38.014;-7.874;2022-10-12T09:42:52;10.68;;;3.05;;
60704;SDS011;46545;38.014;-7.874;2022-10-12T09:47:03;12.18;;;2.28;;
60704;SDS011;46545;38.014;-7.874;2022-10-12T09:49:05;8.73;;;2.90;;
60704;SDS011;46545;38.014;-7.874;2022-10-12T09:51:06;7.00;;;2.38;;
60704;SDS011;46545;38.014;-7.874;2022-10-12T09:55:24;9.65;;;3.08;;
60704;SDS011;46545;38.014;-7.874;2022-10-12T09:57:35;8.40;;;2.35;;
60704;SDS011;46545;38.014;-7.874;2022-10-12T09:59:36;8.88;;;2.72;;
60704;SDS011;46545;38.014;-7.874;2022-10-12T10:01:38;10.70;;;2.42;;
60704;SDS011;46545;38.014;-7.874;2022-10-12T10:03:38;8.65;;;2.25;;
60704;SDS011;46545;38.014;-7.874;2022-10-12T10:05:39;8.23;;;2.15;;
60704;SDS011;46545;38.014;-7.874;2022-10-12T10:07:39;10.00;;;2.70;;
60704;SDS011;46545;38.014;-7.874;2022-10-12T10:09:40;8.65;;;2.80;;
60704;SDS011;46545;38.014;-7.874;2022-10-12T10:11:40;6.97;;;2.65;;
60704;SDS011;46545;38.014;-7.874;2022-10-12T10:13:59;11.77;;;2.83;;
60704;SDS011;46545;38.014;-7.874;2022-10-12T10:18:04;6.93;;;2.20;;
60704;SDS011;46545;38.014;-7.874;2022-10-12T10:20:11;6.18;;;1.88;;
60704;SDS011;46545;38.014;-7.874;2022-10-12T10:22:21;7.65;;;2.47;;
60704;SDS011;46545;38.014;-7.874;2022-10-12T10:24:26;9.82;;;2.30;;
60704;SDS011;46545;38.014;-7.874;2022-10-12T10:26:28;4.60;;;1.42;;
60704;SDS011;46545;38.014;-7.874;2022-10-12T10:28:31;13.70;;;2.85;;
60704;SDS011;46545;38.014;-7.874;2022-10-12T10:30:33;10.75;;;2.00;;
60704;SDS011;46545;38.014;-7.874;2022-10-12T10:32:33;10.75;;;1.80;;
60704;SDS011;46545;38.014;-7.874;2022-10-12T10:34:34;10.00;;;2.00;;
60704;SDS011;46545;38.014;-7.874;2022-10-12T10:36:37;15.00;;;2.55;;
60704;SDS011;46545;38.014;-7.874;2022-10-12T10:38:55;9.45;;;2.53;;
60704;SDS011;46545;38.014;-7.874;2022-10-12T10:40:56;10.27;;;2.08;;
60704;SDS011;46545;38.014;-7.874;2022-10-12T10:43:01;9.60;;;2.42;;
60704;SDS011;46545;38.014;-7.874;2022-10-12T10:45:05;8.02;;;3.25;;
60704;SDS011;46545;38.014;-7.874;2022-10-12T10:47:08;10.87;;;2.57;;
60704;SDS011;46545;38.014;-7.874;2022-10-12T10:49:19;15.83;;;3.23;;
60704;SDS011;46545;38.014;-7.874;2022-10-12T10:51:21;6.65;;;1.70;;
60704;SDS011;46545;38.014;-7.874;2022-10-12T10:53:44;15.70;;;2.33;;
60704;SDS011;46545;38.014;-7.874;2022-10-12T10:58:02;6.65;;;1.90;;
60704;SDS011;46545;38.014;-7.874;2022-10-12T11:00:10;9.00;;;2.25;;
60704;SDS011;46545;38.014;-7.874;2022-10-12T11:04:20;7.25;;;1.90;;
60704;SDS011;46545;38.014;-7.874;2022-10-12T11:06:26;8.82;;;2.28;;
60704;SDS011;46545;38.014;-7.874;2022-10-12T11:08:28;7.40;;;1.92;;
60704;SDS011;46545;38.014;-7.874;2022-10-12T11:10:31;7.93;;;2.53;;
60704;SDS011;46545;38.014;-7.874;2022-10-12T11:12:39;7.55;;;2.17;;
60704;SDS011;46545;38.014;-7.874;2022-10-12T11:14:42;9.20;;;2.53;;
60704;SDS011;46545;38.014;-7.874;2022-10-12T11:18:57;13.85;;;5.38;;
60704;SDS011;46545;38.014;-7.874;2022-10-12T11:21:10;14.40;;;2.92;;
60704;SDS011;46545;38.014;-7.874;2022-10-12T11:23:17;8.17;;;2.47;;
60704;SDS011;46545;38.014;-7.874;2022-10-12T11:25:33;10.82;;;3.00;;
60704;SDS011;46545;38.014;-7.874;2022-10-12T11:27:38;7.70;;;1.92;;
60704;SDS011;46545;38.014;-7.874;2022-10-12T11:29:39;12.32;;;2.10;;
60704;SDS011;46545;38.014;-7.874;2022-10-12T11:31:44;11.57;;;2.45;;
60704;SDS011;46545;38.014;-7.874;2022-10-12T11:33:47;12.27;;;2.80;;
60704;SDS011;46545;38.014;-7.874;2022-10-12T11:35:48;14.35;;;2.28;;
60704;SDS011;46545;38.014;-7.874;2022-10-12T11:37:59;6.60;;;2.05;;
60704;SDS011;46545;38.014;-7.874;2022-10-12T11:40:00;9.15;;;2.28;;
60704;SDS011;46545;38.014;-7.874;2022-10-12T11:42:02;7.45;;;1.92;;
60704;SDS011;46545;38.014;-7.874;2022-10-12T11:44:18;15.75;;;3.35;;
60704;SDS011;46545;38.014;-7.874;2022-10-12T11:46:22;8.27;;;3.08;;
60704;SDS011;46545;38.014;-7.874;2022-10-12T11:50:44;8.52;;;2.40;;
60704;SDS011;46545;38.014;-7.874;2022-10-12T11:52:46;7.85;;;2.20;;
60704;SDS011;46545;38.014;-7.874;2022-10-12T11:56:49;6.35;;;1.88;;
60704;SDS011;46545;38.014;-7.874;2022-10-12T11:58:52;7.37;;;1.83;;
60704;SDS011;46545;38.014;-7.874;2022-10-12T12:03:28;9.75;;;2.75;;
60704;SDS011;46545;38.014;-7.874;2022-10-12T12:05:21;8.77;;;2.35;;
60704;SDS011;46545;38.014;-7.874;2022-10-12T12:09:32;4.53;;;2.22;;
60704;SDS011;46545;38.014;-7.874;2022-10-12T12:11:33;11.38;;;2.67;;
60704;SDS011;46545;38.014;-7.874;2022-10-12T12:13:34;8.43;;;2.13;;
60704;SDS011;46545;38.014;-7.874;2022-10-12T12:15:34;8.43;;;1.85;;
60704;SDS011;46545;38.014;-7.874;2022-10-12T12:17:35;12.80;;;2.47;;
60704;SDS011;46545;38.014;-7.874;2022-10-12T12:23:55;6.03;;;1.95;;
60704;SDS011;46545;38.014;-7.874;2022-10-12T12:26:10;12.07;;;2.95;;
60704;SDS011;46545;38.014;-7.874;2022-10-12T12:28:19;4.97;;;1.88;;
60704;SDS011;46545;38.014;-7.874;2022-10-12T12:32:21;9.13;;;2.30;;
60704;SDS011;46545;38.014;-7.874;2022-10-12T12:34:22;8.68;;;1.88;;
60704;SDS011;46545;38.014;-7.874;2022-10-12T12:36:30;6.05;;;1.75;;
60704;SDS011;46545;38.014;-7.874;2022-10-12T12:40:32;10.27;;;1.75;;
60704;SDS011;46545;38.014;-7.874;2022-10-12T12:42:33;8.10;;;1.73;;
60704;SDS011;46545;38.014;-7.874;2022-10-12T12:44:42;8.38;;;1.80;;
60704;SDS011;46545;38.014;-7.874;2022-10-12T12:48:56;11.52;;;2.03;;
60704;SDS011;46545;38.014;-7.874;2022-10-12T12:50:57;9.55;;;1.52;;
60704;SDS011;46545;38.014;-7.874;2022-10-12T12:53:01;8.55;;;1.80;;
60704;SDS011;46545;38.014;-7.874;2022-10-12T13:06:05;3.03;;;1.35;;
60704;SDS011;46545;38.014;-7.874;2022-10-12T13:19:00;2.55;;;1.08;;
60704;SDS011;46545;38.014;-7.874;2022-10-12T13:21:04;5.32;;;1.33;;
60704;SDS011;46545;38.014;-7.874;2022-10-12T13:23:05;7.53;;;1.33;;
60704;SDS011;46545;38.014;-7.874;2022-10-12T13:25:10;7.43;;;1.40;;
60704;SDS011;46545;38.014;-7.874;2022-10-12T13:29:21;5.97;;;1.73;;
60704;SDS011;46545;38.014;-7.874;2022-10-12T13:31:26;6.25;;;1.30;;
60704;SDS011;46545;38.014;-7.874;2022-10-12T13:33:44;5.75;;;1.10;;
60704;SDS011;46545;38.014;-7.874;2022-10-12T13:36:00;2.30;;;1.10;;
60704;SDS011;46545;38.014;-7.874;2022-10-12T13:40:31;5.13;;;1.50;;
60704;SDS011;46545;38.014;-7.874;2022-10-12T13:42:32;6.50;;;1.33;;
60704;SDS011;46545;38.014;-7.874;2022-10-12T13:44:34;5.93;;;1.05;;
60704;SDS011;46545;38.014;-7.874;2022-10-12T13:46:40;10.13;;;1.90;;
60704;SDS011;46545;38.014;-7.874;2022-10-12T13:48:46;7.30;;;1.48;;
60704;SDS011;46545;38.014;-7.874;2022-10-12T13:50:51;5.80;;;1.00;;
60704;SDS011;46545;38.014;-7.874;2022-10-12T13:52:52;6.80;;;1.50;;